Time;durP1;ratioP1;P1;durP2;ratioP2;P2;SDS_P1;SDS_P2;PMS_P1;PMS_P2;Temp;Humidity;BMP_temperature;BMP_pressure;BME280_temperature;BME280_humidity;BME280_pressure;Samples;Min_cycle;Max_cycle;Signal;HPM_P1;HPM_P2
2022/07/17 00:00:43;;;;;;;2.63;1.48;;;24.50;45.20;;;;;;4993912;28;20018;-77
2022/07/17 00:03:10;;;;;;;4.05;2.17;;;24.50;45.80;;;;;;4994325;28;20046;-77
2022/07/17 00:05:36;;;;;;;7.15;2.30;;;24.30;45.90;;;;;;4995998;28;20049;-77
2022/07/17 00:08:02;;;;;;;5.95;1.80;;;24.40;45.90;;;;;;4993882;28;20030;-77
2022/07/17 00:10:27;;;;;;;3.30;2.20;;;24.40;45.80;;;;;;4995763;28;20433;-77
2022/07/17 00:12:53;;;;;;;5.93;2.20;;;24.30;46.20;;;;;;4995135;28;20489;-77
2022/07/17 00:15:19;;;;;;;4.47;1.92;;;24.30;46.00;;;;;;4994615;28;20874;-78
2022/07/17 00:17:48;;;;;;;2.78;1.65;;;24.30;46.10;;;;;;4995584;28;20029;-78
2022/07/17 00:20:14;;;;;;;3.00;2.10;;;24.30;45.80;;;;;;5010459;28;20026;-77
2022/07/17 00:22:42;;;;;;;5.18;1.95;;;24.20;46.40;;;;;;4994600;28;20473;-77
2022/07/17 00:25:08;;;;;;;3.00;1.98;;;24.20;45.90;;;;;;4994306;28;20034;-77
2022/07/17 00:27:33;;;;;;;4.78;2.05;;;24.20;45.80;;;;;;4994603;28;20026;-78
2022/07/17 00:30:00;;;;;;;5.30;2.28;;;24.20;45.60;;;;;;4995541;28;20022;-78
2022/07/17 00:32:26;;;;;;;2.08;1.60;;;24.20;46.20;;;;;;4995637;28;20468;-77
2022/07/17 00:34:54;;;;;;;5.18;2.05;;;24.10;45.60;;;;;;4995039;28;20033;-77
2022/07/17 00:37:20;;;;;;;3.90;1.77;;;24.00;45.80;;;;;;4994409;28;20481;-78
2022/07/17 00:39:45;;;;;;;4.20;1.90;;;24.00;45.70;;;;;;4994942;28;20049;-78
2022/07/17 00:42:15;;;;;;;4.88;2.05;;;24.00;45.60;;;;;;4995249;28;20590;-78
2022/07/17 00:44:41;;;;;;;;;;;24.00;45.60;;;;;;4995457;28;20023;-78
2022/07/17 00:47:15;;;;;;;3.80;2.05;;;24.00;45.50;;;;;;4994704;28;19976;-78
2022/07/17 00:49:42;;;;;;;4.97;2.05;;;24.00;45.40;;;;;;4998917;28;20061;-78
2022/07/17 00:52:09;;;;;;;3.65;2.15;;;24.00;45.10;;;;;;4999218;28;20026;-78
2022/07/17 00:54:37;;;;;;;3.45;1.63;;;24.00;45.30;;;;;;4998535;28;20062;-77
2022/07/17 00:57:24;;;;;;;4.10;2.00;;;24.00;45.30;;;;;;4999124;28;20097;-78
2022/07/17 00:59:50;;;;;;;5.03;2.10;;;24.00;45.20;;;;;;5014147;28;20418;-78
2022/07/17 01:02:15;;;;;;;4.40;2.30;;;24.00;45.20;;;;;;4998397;28;20033;-77
2022/07/17 01:04:42;;;;;;;3.83;2.03;;;23.90;45.20;;;;;;5013442;28;20080;-78
2022/07/17 01:07:08;;;;;;;4.78;1.98;;;23.90;45.00;;;;;;4997330;28;20113;-78
2022/07/17 01:09:34;;;;;;;3.15;1.73;;;23.90;44.90;;;;;;5013807;28;20046;-78
2022/07/17 01:12:00;;;;;;;3.83;2.00;;;23.90;45.00;;;;;;4998217;28;20029;-78
2022/07/17 01:14:29;;;;;;;3.60;2.10;;;23.80;45.80;;;;;;5013198;28;20062;-78
2022/07/17 01:16:54;;;;;;;3.78;2.10;;;23.80;45.20;;;;;;4981735;28;20031;-78
2022/07/17 01:19:21;;;;;;;6.85;1.70;;;23.80;45.00;;;;;;5014055;28;20370;-78
2022/07/17 01:21:49;;;;;;;2.92;2.08;;;23.80;45.10;;;;;;4997625;28;20030;-78
2022/07/17 01:24:16;;;;;;;4.93;1.90;;;23.80;45.30;;;;;;4998274;28;20041;-77
2022/07/17 01:26:46;;;;;;;2.85;1.98;;;23.80;45.60;;;;;;4998868;28;20072;-77
2022/07/17 01:29:13;;;;;;;4.70;2.30;;;23.80;46.00;;;;;;5013580;28;20015;-78
2022/07/17 01:31:40;;;;;;;5.45;1.98;;;23.80;45.80;;;;;;5009841;28;20027;-78
2022/07/17 01:34:07;;;;;;;5.57;2.28;;;23.70;46.10;;;;;;4979135;28;20047;-78
2022/07/17 01:36:34;;;;;;;3.58;2.00;;;23.70;45.80;;;;;;4995373;28;20030;-78
2022/07/17 01:38:59;;;;;;;3.83;2.22;;;23.70;46.60;;;;;;4998182;28;20117;-78
2022/07/17 01:41:25;;;;;;;4.70;2.05;;;23.70;46.70;;;;;;4997640;28;20116;-78
2022/07/17 01:43:51;;;;;;;2.83;2.30;;;23.60;46.50;;;;;;4996494;28;20026;-77
2022/07/17 01:46:17;;;;;;;3.85;2.00;;;23.60;46.60;;;;;;4998160;28;20113;-77
2022/07/17 01:48:43;;;;;;;3.22;2.10;;;23.50;47.00;;;;;;4998132;28;20021;-77
2022/07/17 01:51:08;;;;;;;3.47;1.75;;;23.50;46.50;;;;;;4998135;28;20108;-77
2022/07/17 01:53:34;;;;;;;3.20;2.10;;;23.40;46.70;;;;;;5009586;28;20023;-77
2022/07/17 01:55:59;;;;;;;2.58;1.70;;;23.50;46.50;;;;;;4978865;28;20034;-78
2022/07/17 01:58:25;;;;;;;3.55;1.92;;;23.50;46.30;;;;;;4992506;28;20571;-77
2022/07/17 02:00:52;;;;;;;3.08;2.33;;;23.50;46.40;;;;;;4997453;28;20688;-77
2022/07/17 02:03:18;;;;;;;3.38;2.10;;;23.40;46.20;;;;;;4997774;28;20624;-77
2022/07/17 02:05:43;;;;;;;6.20;2.20;;;23.40;46.60;;;;;;5012370;28;20042;-77
2022/07/17 02:08:09;;;;;;;2.78;1.73;;;23.40;46.10;;;;;;4997934;28;20033;-77
2022/07/17 02:10:35;;;;;;;3.58;2.00;;;23.30;45.90;;;;;;4997667;28;20027;-77
2022/07/17 02:13:01;;;;;;;4.15;2.05;;;23.40;46.10;;;;;;4997664;28;20029;-77
2022/07/17 02:15:26;;;;;;;3.25;2.00;;;23.30;46.00;;;;;;4997065;28;20051;-77
2022/07/17 02:17:52;;;;;;;4.63;1.92;;;23.30;46.00;;;;;;4997786;28;20034;-77
2022/07/17 02:20:18;;;;;;;7.65;2.25;;;23.30;47.00;;;;;;4996508;28;20464;-77
2022/07/17 02:22:44;;;;;;;3.88;2.05;;;23.30;45.90;;;;;;4996288;28;20061;-77
2022/07/17 02:25:11;;;;;;;4.45;2.28;;;23.30;46.00;;;;;;5012672;28;20031;-77
2022/07/17 02:27:37;;;;;;;3.20;2.47;;;23.30;46.00;;;;;;4996722;28;20030;-77
2022/07/17 02:30:04;;;;;;;3.67;2.33;;;23.20;46.10;;;;;;4997288;28;20109;-77
2022/07/17 02:32:30;;;;;;;3.55;1.90;;;23.20;45.90;;;;;;4997521;28;20034;-77
2022/07/17 02:34:56;;;;;;;3.97;1.92;;;23.10;45.90;;;;;;4996786;28;20038;-77
2022/07/17 02:37:21;;;;;;;3.20;2.03;;;23.10;46.00;;;;;;4996664;28;20033;-77
2022/07/17 02:39:53;;;;;;;4.53;2.30;;;23.10;45.80;;;;;;4997123;28;20053;-77
2022/07/17 02:42:24;;;;;;;3.50;1.70;;;23.00;45.90;;;;;;4996497;28;20128;-77
2022/07/17 02:44:50;;;;;;;3.92;1.85;;;23.00;46.00;;;;;;4997291;28;20030;-77
2022/07/17 02:47:24;;;;;;;4.55;2.15;;;23.00;45.80;;;;;;4997021;28;20030;-77
2022/07/17 02:49:50;;;;;;;2.78;1.80;;;22.90;46.10;;;;;;4996402;28;20041;-77
2022/07/17 02:52:16;;;;;;;3.65;2.00;;;22.90;46.30;;;;;;4996573;28;20138;-77
2022/07/17 02:54:41;;;;;;;2.70;2.10;;;22.80;46.00;;;;;;4996830;28;20058;-77
2022/07/17 02:57:10;;;;;;;4.07;2.35;;;22.90;46.10;;;;;;4994720;28;20501;-77
2022/07/17 02:59:36;;;;;;;5.00;1.90;;;22.80;45.90;;;;;;4995476;28;20117;-77
2022/07/17 03:02:02;;;;;;;3.13;2.28;;;22.80;45.60;;;;;;4977289;28;20027;-77
2022/07/17 03:04:28;;;;;;;4.53;2.00;;;22.80;45.70;;;;;;4992387;28;20073;-77
2022/07/17 03:06:53;;;;;;;3.60;1.77;;;22.80;45.50;;;;;;4996615;28;20501;-77
2022/07/17 03:09:19;;;;;;;3.15;2.05;;;22.70;45.70;;;;;;4996093;28;20034;-78
2022/07/17 03:11:45;;;;;;;3.65;1.98;;;22.70;45.70;;;;;;4995866;28;20030;-80
2022/07/17 03:14:10;;;;;;;3.25;1.95;;;22.70;46.00;;;;;;4996102;28;20035;-78
2022/07/17 03:16:36;;;;;;;3.22;1.90;;;22.70;45.60;;;;;;4995978;28;20030;-78
2022/07/17 03:19:02;;;;;;;4.65;2.03;;;22.70;46.10;;;;;;4995398;28;20130;-78
2022/07/17 03:21:28;;;;;;;5.82;2.00;;;22.60;45.50;;;;;;4991580;28;20022;-78
2022/07/17 03:23:53;;;;;;;5.43;1.77;;;22.60;45.50;;;;;;4976887;28;20038;-79
2022/07/17 03:26:19;;;;;;;3.03;2.08;;;22.60;45.70;;;;;;4991409;28;20034;-78
2022/07/17 03:28:44;;;;;;;3.72;1.92;;;22.60;45.60;;;;;;4996148;28;20022;-79
2022/07/17 03:31:10;;;;;;;4.15;2.00;;;22.50;45.40;;;;;;4995775;28;20109;-78
2022/07/17 03:33:36;;;;;;;3.05;1.70;;;22.50;45.30;;;;;;4995806;28;20049;-79
2022/07/17 03:36:01;;;;;;;5.57;2.13;;;22.50;45.10;;;;;;4995577;28;20160;-79
2022/07/17 03:38:27;;;;;;;2.20;1.77;;;22.50;45.60;;;;;;4995496;28;20038;-78
2022/07/17 03:40:53;;;;;;;5.35;2.28;;;22.40;45.40;;;;;;4995913;28;20034;-78
2022/07/17 03:43:18;;;;;;;3.58;2.13;;;22.40;45.50;;;;;;4995883;28;20030;-79
2022/07/17 03:45:44;;;;;;;2.92;1.98;;;22.30;45.50;;;;;;4995996;28;20401;-79
2022/07/17 03:48:10;;;;;;;5.13;2.20;;;22.30;45.60;;;;;;4995508;28;20026;-78
2022/07/17 03:50:36;;;;;;;2.90;1.52;;;22.10;46.00;;;;;;4995897;28;20049;-79
2022/07/17 03:53:01;;;;;;;3.13;2.25;;;22.30;46.10;;;;;;4994307;28;20046;-78
2022/07/17 03:55:27;;;;;;;2.33;1.73;;;22.30;45.60;;;;;;4995174;28;20113;-79
2022/07/17 03:57:53;;;;;;;4.13;1.90;;;22.20;46.00;;;;;;4995746;28;20444;-78
2022/07/17 04:00:19;;;;;;;4.75;1.95;;;22.20;45.80;;;;;;4995742;28;20056;-77
2022/07/17 04:02:44;;;;;;;3.17;1.80;;;22.20;45.60;;;;;;5011063;28;20053;-79
2022/07/17 04:05:12;;;;;;;4.70;1.95;;;22.20;45.70;;;;;;4995136;28;20086;-81
2022/07/17 04:07:39;;;;;;;3.95;1.90;;;22.10;46.00;;;;;;4995714;28;20093;-79
2022/07/17 04:10:06;;;;;;;4.22;1.83;;;22.20;45.80;;;;;;4995858;28;20136;-78
2022/07/17 04:12:33;;;;;;;5.38;1.98;;;22.10;45.70;;;;;;4994415;28;20094;-79
2022/07/17 04:14:58;;;;;;;2.75;1.65;;;22.10;46.10;;;;;;4995484;28;20841;-79
2022/07/17 04:17:25;;;;;;;3.33;1.90;;;22.00;45.80;;;;;;4995297;28;20030;-79
2022/07/17 04:19:51;;;;;;;3.58;1.98;;;22.10;45.80;;;;;;4995646;28;20022;-78
2022/07/17 04:22:17;;;;;;;2.63;1.83;;;22.00;45.90;;;;;;4997711;28;20069;-78
2022/07/17 04:24:43;;;;;;;2.90;1.52;;;22.00;45.90;;;;;;4998328;28;20481;-80
2022/07/17 04:27:09;;;;;;;3.92;2.30;;;22.00;45.90;;;;;;4995263;28;20543;-81
2022/07/17 04:29:35;;;;;;;4.50;2.13;;;22.00;45.70;;;;;;4999120;28;20022;-79
2022/07/17 04:32:00;;;;;;;3.90;1.80;;;22.10;45.90;;;;;;4994651;28;20053;-77
2022/07/17 04:34:27;;;;;;;2.90;2.10;;;22.00;46.30;;;;;;4980052;28;20397;-79
2022/07/17 04:36:52;;;;;;;2.30;1.65;;;22.00;46.10;;;;;;4995081;28;20485;-78
2022/07/17 04:39:25;;;;;;;6.72;2.40;;;22.00;46.10;;;;;;4982736;28;20115;-78
2022/07/17 04:41:51;;;;;;;3.78;1.52;;;22.00;45.90;;;;;;4998665;28;20030;-77
2022/07/17 04:44:35;;;;;;;3.83;1.63;;;22.00;46.00;;;;;;4996644;28;20049;-80
2022/07/17 04:47:00;;;;;;;3.45;1.70;;;21.90;46.30;;;;;;4998666;28;20027;-82
2022/07/17 04:49:26;;;;;;;3.33;1.77;;;21.90;46.60;;;;;;4992134;28;20073;-81
2022/07/17 04:51:51;;;;;;;3.65;1.50;;;21.90;46.30;;;;;;4996845;28;20037;-81
2022/07/17 04:54:17;;;;;;;3.05;2.42;;;21.90;46.90;;;;;;4996355;28;20038;-80
2022/07/17 04:56:43;;;;;;;2.50;1.42;;;22.00;46.20;;;;;;4990494;28;20038;-80
2022/07/17 04:59:08;;;;;;;2.65;1.75;;;21.90;46.10;;;;;;4985439;28;20054;-84
2022/07/17 05:01:34;;;;;;;3.90;1.65;;;21.90;46.30;;;;;;4990874;28;20046;-81
2022/07/17 05:04:00;;;;;;;4.13;2.03;;;21.90;46.10;;;;;;4997737;28;20400;-84
2022/07/17 05:06:25;;;;;;;6.85;2.17;;;22.00;46.40;;;;;;4998292;28;20026;-80
2022/07/17 05:08:51;;;;;;;3.33;1.77;;;22.00;46.00;;;;;;5008620;28;20066;-82
2022/07/17 05:11:17;;;;;;;2.33;1.52;;;22.10;45.90;;;;;;4989876;28;20870;-84
2022/07/17 05:13:42;;;;;;;3.08;1.38;;;22.10;46.30;;;;;;4985908;28;20026;-82
2022/07/17 05:16:08;;;;;;;4.18;1.80;;;22.10;46.20;;;;;;4989655;28;20050;-81
2022/07/17 05:18:34;;;;;;;4.95;1.75;;;22.10;46.20;;;;;;4990593;28;20105;-82
2022/07/17 05:20:59;;;;;;;3.60;1.83;;;22.20;46.00;;;;;;4992860;28;20034;-81
2022/07/17 05:23:25;;;;;;;1.92;1.52;;;22.10;46.10;;;;;;4986734;28;20030;-81
2022/07/17 05:25:51;;;;;;;2.00;1.45;;;22.10;46.50;;;;;;4991755;28;20026;-89
2022/07/17 05:28:16;;;;;;;3.67;1.58;;;22.00;46.40;;;;;;4988965;28;20027;-80
2022/07/17 05:30:42;;;;;;;3.78;1.60;;;22.10;46.40;;;;;;5011603;28;20030;-80
2022/07/17 05:33:08;;;;;;;5.22;1.80;;;22.00;46.60;;;;;;4994083;28;20041;-81
2022/07/17 05:35:33;;;;;;;4.55;2.10;;;22.10;46.70;;;;;;4997964;28;20062;-81
2022/07/17 05:37:59;;;;;;;3.10;1.63;;;22.10;46.70;;;;;;5001170;28;20023;-81
2022/07/17 05:40:25;;;;;;;3.30;1.83;;;22.20;46.60;;;;;;5010337;28;20034;-81
2022/07/17 05:42:51;;;;;;;3.55;2.08;;;22.20;46.60;;;;;;4993715;28;20035;-81
2022/07/17 05:45:17;;;;;;;2.70;1.50;;;22.10;46.70;;;;;;4994677;28;20038;-81
2022/07/17 05:47:42;;;;;;;2.58;1.80;;;22.20;46.70;;;;;;4994511;28;20613;-80
2022/07/17 05:50:08;;;;;;;5.13;2.17;;;22.20;46.70;;;;;;4994191;28;20689;-81
2022/07/17 05:52:34;;;;;;;2.25;1.92;;;22.10;46.90;;;;;;5009834;28;20026;-80
2022/07/17 05:54:59;;;;;;;5.97;1.95;;;22.20;46.80;;;;;;4994170;28;20109;-81
2022/07/17 05:57:25;;;;;;;3.08;1.83;;;22.30;47.30;;;;;;4996026;28;20405;-81
2022/07/17 05:59:51;;;;;;;5.63;1.70;;;22.20;47.00;;;;;;4996269;28;20715;-81
2022/07/17 06:02:16;;;;;;;2.90;1.65;;;22.20;47.10;;;;;;4996226;28;20027;-81
2022/07/17 06:04:42;;;;;;;3.55;1.70;;;22.30;47.00;;;;;;4997862;28;20126;-81
2022/07/17 06:07:08;;;;;;;3.15;1.95;;;22.30;47.00;;;;;;4997421;28;20058;-81
2022/07/17 06:09:33;;;;;;;3.38;1.83;;;22.30;47.10;;;;;;4996473;28;20030;-81
2022/07/17 06:11:59;;;;;;;2.05;1.58;;;22.40;47.00;;;;;;4997157;28;20030;-81
2022/07/17 06:14:25;;;;;;;2.97;1.70;;;22.40;46.80;;;;;;4997583;28;20814;-81
2022/07/17 06:16:50;;;;;;;2.88;1.88;;;22.40;46.80;;;;;;4997633;28;20030;-81
2022/07/17 06:19:16;;;;;;;3.28;1.95;;;22.40;47.10;;;;;;4996437;28;20030;-81
2022/07/17 06:21:42;;;;;;;3.30;2.10;;;22.50;46.90;;;;;;4997640;28;20097;-81
2022/07/17 06:24:08;;;;;;;5.05;2.00;;;22.60;47.10;;;;;;4997557;28;20045;-81
2022/07/17 06:26:33;;;;;;;3.22;1.85;;;22.60;46.80;;;;;;4996377;28;20030;-81
2022/07/17 06:28:59;;;;;;;3.72;1.70;;;22.60;46.50;;;;;;4997159;28;20088;-81
2022/07/17 06:31:25;;;;;;;2.78;1.83;;;22.60;46.70;;;;;;4997461;28;20026;-81
2022/07/17 06:33:50;;;;;;;1.90;1.48;;;22.70;46.30;;;;;;4997163;28;20041;-81
2022/07/17 06:36:16;;;;;;;3.28;2.03;;;22.70;45.90;;;;;;4996484;28;20033;-81
2022/07/17 06:38:42;;;;;;;2.65;1.98;;;22.80;46.10;;;;;;4997293;28;20069;-81
2022/07/17 06:41:07;;;;;;;3.47;2.15;;;22.90;45.90;;;;;;4997255;28;20084;-81
2022/07/17 06:43:33;;;;;;;4.88;1.83;;;23.00;45.90;;;;;;4996517;28;20053;-81
2022/07/17 06:45:58;;;;;;;4.65;1.65;;;23.10;46.30;;;;;;4996022;28;20488;-81
2022/07/17 06:48:24;;;;;;;4.18;1.50;;;23.30;45.70;;;;;;4996504;28;20030;-81
2022/07/17 06:50:50;;;;;;;3.17;1.80;;;23.30;45.50;;;;;;4997041;28;20033;-81
2022/07/17 06:53:15;;;;;;;3.25;1.40;;;23.30;45.20;;;;;;4995858;28;20085;-81
2022/07/17 06:55:42;;;;;;;2.47;1.65;;;23.30;45.30;;;;;;4996397;28;20578;-81
2022/07/17 06:58:07;;;;;;;3.05;1.63;;;23.30;45.20;;;;;;4996167;28;20046;-81
2022/07/17 07:00:33;;;;;;;5.40;1.80;;;23.30;45.50;;;;;;4996841;28;20084;-81
2022/07/17 07:02:59;;;;;;;2.15;1.67;;;23.40;45.30;;;;;;4996983;28;20070;-81
2022/07/17 07:05:25;;;;;;;3.03;1.48;;;23.60;44.80;;;;;;4996288;28;20067;-81
2022/07/17 07:07:50;;;;;;;2.78;1.77;;;23.80;45.30;;;;;;4996687;28;20038;-81
2022/07/17 07:10:16;;;;;;;2.20;1.63;;;23.80;44.40;;;;;;4996601;28;20049;-81
2022/07/17 07:12:42;;;;;;;2.63;1.75;;;23.90;44.40;;;;;;5011230;28;20041;-81
2022/07/17 07:15:09;;;;;;;3.13;1.80;;;24.10;44.00;;;;;;4994717;28;20050;-81
2022/07/17 07:17:35;;;;;;;2.00;1.60;;;24.30;44.30;;;;;;4996371;28;20045;-81
2022/07/17 07:20:03;;;;;;;2.38;1.40;;;24.40;44.30;;;;;;4996537;28;20073;-81
2022/07/17 07:22:29;;;;;;;3.85;1.70;;;24.50;43.90;;;;;;5007743;28;20037;-81
2022/07/17 07:24:55;;;;;;;2.42;1.60;;;24.60;43.30;;;;;;4992109;28;20026;-81
2022/07/17 07:27:21;;;;;;;3.22;1.50;;;24.80;43.20;;;;;;4976752;28;20052;-78
2022/07/17 07:29:46;;;;;;;3.17;2.22;;;25.40;41.20;;;;;;4983121;28;20085;-79
2022/07/17 07:32:12;;;;;;;2.85;1.60;;;26.30;40.10;;;;;;4996070;28;20037;-79
2022/07/17 07:34:37;;;;;;;2.28;1.30;;;27.80;38.60;;;;;;4995827;28;20027;-79
2022/07/17 07:37:03;;;;;;;4.20;1.33;;;30.00;34.30;;;;;;4996284;28;20508;-79
2022/07/17 07:39:29;;;;;;;2.92;1.60;;;31.70;32.10;;;;;;4995545;28;20023;-80
2022/07/17 07:41:54;;;;;;;3.47;1.60;;;33.00;30.50;;;;;;4996302;28;20406;-80
2022/07/17 07:44:20;;;;;;;3.17;1.45;;;34.30;28.70;;;;;;4995596;28;20609;-80
2022/07/17 07:46:46;;;;;;;1.65;1.25;;;35.00;27.30;;;;;;4996003;28;20037;-80
2022/07/17 07:49:11;;;;;;;2.63;1.40;;;35.30;26.10;;;;;;4995478;28;20050;-80
2022/07/17 07:51:37;;;;;;;3.70;1.50;;;35.00;25.90;;;;;;4996054;28;20022;-80
2022/07/17 07:54:03;;;;;;;2.80;1.35;;;35.60;26.30;;;;;;4995485;28;20452;-80
2022/07/17 07:56:28;;;;;;;3.33;1.40;;;36.60;25.40;;;;;;4995787;28;20461;-80
2022/07/17 07:58:54;;;;;;;3.63;1.30;;;36.80;23.80;;;;;;4993935;28;20025;-81
2022/07/17 08:01:20;;;;;;;5.72;1.45;;;37.30;23.60;;;;;;4995942;28;20034;-80
2022/07/17 08:03:45;;;;;;;2.95;1.50;;;37.60;23.70;;;;;;4995270;28;20085;-80
2022/07/17 08:06:11;;;;;;;1.88;1.30;;;37.40;23.80;;;;;;4995266;28;20474;-80
2022/07/17 08:08:37;;;;;;;2.83;1.42;;;37.30;23.30;;;;;;4995952;28;20057;-80
2022/07/17 08:11:02;;;;;;;2.30;1.23;;;36.80;23.60;;;;;;4995740;28;20085;-80
2022/07/17 08:13:28;;;;;;;4.95;1.45;;;36.90;24.50;;;;;;4995048;28;20034;-80
2022/07/17 08:15:54;;;;;;;3.50;1.40;;;37.40;24.00;;;;;;4995787;28;20050;-80
2022/07/17 08:18:20;;;;;;;3.67;1.40;;;38.30;23.80;;;;;;4994570;28;20034;-80
2022/07/17 08:20:45;;;;;;;3.63;1.70;;;37.90;22.70;;;;;;4995290;28;20030;-80
2022/07/17 08:23:11;;;;;;;4.20;1.50;;;39.00;22.60;;;;;;4995064;28;20054;-80
2022/07/17 08:25:37;;;;;;;2.25;1.52;;;39.00;21.80;;;;;;5010742;28;20052;-80
2022/07/17 08:28:04;;;;;;;3.50;1.58;;;39.40;21.80;;;;;;4995473;28;20032;-81
2022/07/17 08:30:34;;;;;;;1.83;1.13;;;39.70;21.60;;;;;;4995150;28;20027;-80
2022/07/17 08:33:01;;;;;;;2.63;1.35;;;39.90;21.80;;;;;;4995556;28;20022;-81
2022/07/17 08:35:26;;;;;;;3.47;1.38;;;40.30;21.00;;;;;;4995700;28;20022;-80
2022/07/17 08:37:52;;;;;;;3.60;1.42;;;40.00;20.40;;;;;;4995057;28;20049;-80
2022/07/17 08:40:25;;;;;;;3.70;1.40;;;39.40;21.10;;;;;;4995019;28;20102;-80
2022/07/17 08:42:52;;;;;;;2.05;1.38;;;39.90;20.90;;;;;;4994831;28;20026;-80
2022/07/17 08:45:17;;;;;;;2.92;1.10;;;40.60;21.20;;;;;;4995434;28;20140;-81
2022/07/17 08:47:43;;;;;;;3.97;1.55;;;40.50;19.40;;;;;;4995478;28;20023;-80
2022/07/17 08:50:11;;;;;;;6.38;1.60;;;40.30;20.20;;;;;;4995389;28;20042;-81
2022/07/17 08:52:38;;;;;;;2.72;1.40;;;40.10;20.70;;;;;;5007102;28;20038;-81
2022/07/17 08:55:08;;;;;;;3.85;1.48;;;40.40;21.30;;;;;;4976110;28;20031;-81
2022/07/17 08:57:37;;;;;;;2.67;1.30;;;41.30;20.90;;;;;;4981570;28;20488;-80
2022/07/17 09:00:03;;;;;;;3.38;1.17;;;42.20;19.90;;;;;;4994044;28;20407;-81
2022/07/17 09:02:30;;;;;;;3.15;1.33;;;42.30;19.20;;;;;;4994749;28;20073;-81
2022/07/17 09:04:55;;;;;;;2.85;1.30;;;42.50;19.20;;;;;;4994935;28;20545;-81
2022/07/17 09:07:21;;;;;;;2.75;1.20;;;42.10;18.90;;;;;;4995259;28;20053;-81
2022/07/17 09:09:53;;;;;;;1.95;1.08;;;42.60;19.40;;;;;;4996691;28;20072;-81
2022/07/17 09:12:29;;;;;;;2.22;1.17;;;42.10;19.20;;;;;;4997033;28;20037;-81
2022/07/17 09:14:56;;;;;;;6.22;1.33;;;41.40;18.90;;;;;;5004109;28;20602;-81
2022/07/17 09:17:26;;;;;;;2.03;1.13;;;42.00;18.60;;;;;;4997794;28;20126;-80
2022/07/17 09:19:52;;;;;;;1.77;1.33;;;40.80;18.80;;;;;;5014000;28;20018;-81
2022/07/17 09:22:23;;;;;;;1.88;1.15;;;40.00;19.40;;;;;;4998657;28;20492;-81
2022/07/17 09:24:49;;;;;;;4.63;1.40;;;39.30;19.50;;;;;;4998266;28;20023;-80
2022/07/17 09:27:23;;;;;;;3.85;1.40;;;39.40;20.50;;;;;;4998583;28;20042;-81
2022/07/17 09:29:55;;;;;;;2.80;1.25;;;39.90;20.50;;;;;;4998305;28;20053;-80
2022/07/17 09:32:23;;;;;;;2.85;1.40;;;40.40;19.00;;;;;;4998290;28;20018;-81
2022/07/17 09:34:50;;;;;;;2.05;1.30;;;40.60;18.50;;;;;;4998026;28;20042;-80
2022/07/17 09:37:16;;;;;;;3.13;1.50;;;39.90;19.70;;;;;;4998682;28;20057;-81
2022/07/17 09:39:42;;;;;;;3.03;1.45;;;39.60;19.50;;;;;;4998265;28;20025;-81
2022/07/17 09:42:08;;;;;;;3.65;0.90;;;39.50;19.20;;;;;;4997808;28;20038;-81
2022/07/17 09:44:34;;;;;;;2.55;1.45;;;39.70;19.30;;;;;;4998311;28;20030;-80
2022/07/17 09:47:02;;;;;;;2.00;1.33;;;40.20;20.10;;;;;;4997781;28;20122;-80
2022/07/17 09:49:28;;;;;;;2.05;1.15;;;40.10;19.40;;;;;;4997823;28;20065;-81
2022/07/17 09:51:54;;;;;;;2.00;1.10;;;39.90;18.80;;;;;;4997519;28;20092;-80
2022/07/17 09:54:22;;;;;;;1.85;1.25;;;40.40;18.80;;;;;;4998060;28;20066;-81
2022/07/17 09:56:50;;;;;;;4.18;1.27;;;40.00;19.00;;;;;;4998033;28;20026;-81
2022/07/17 09:59:18;;;;;;;1.83;1.02;;;39.70;19.00;;;;;;4997206;28;20043;-81
2022/07/17 10:01:45;;;;;;;1.97;1.30;;;39.50;19.10;;;;;;4997944;28;20045;-80
2022/07/17 10:04:14;;;;;;;3.15;1.17;;;39.00;19.80;;;;;;5013163;28;20022;-80
2022/07/17 10:06:40;;;;;;;3.38;1.05;;;39.20;20.20;;;;;;4998008;28;20042;-80
2022/07/17 10:09:06;;;;;;;2.83;1.45;;;39.10;20.10;;;;;;4997057;28;20118;-81
2022/07/17 10:11:35;;;;;;;2.03;0.90;;;39.60;18.80;;;;;;4997540;28;20030;-81
2022/07/17 10:14:08;;;;;;;2.85;1.10;;;39.80;19.40;;;;;;4995652;28;20026;-82
2022/07/17 10:16:35;;;;;;;1.60;1.10;;;39.60;19.10;;;;;;5012820;28;20041;-80
2022/07/17 10:19:02;;;;;;;2.17;1.35;;;39.30;19.50;;;;;;4992978;28;20027;-81
2022/07/17 10:21:30;;;;;;;1.40;0.80;;;38.80;19.50;;;;;;4978263;28;20150;-80
2022/07/17 10:23:55;;;;;;;1.60;0.90;;;39.30;19.60;;;;;;5005301;28;20328;-81
2022/07/17 10:26:36;;;;;;;2.85;1.13;;;39.40;18.90;;;;;;4983697;28;20281;-81
2022/07/17 10:29:03;;;;;;;2.10;1.17;;;38.80;19.20;;;;;;4997094;28;20037;-81
2022/07/17 10:31:30;;;;;;;3.42;1.25;;;38.80;19.50;;;;;;4997460;28;20037;-80
2022/07/17 10:34:04;;;;;;;1.42;0.90;;;38.90;20.00;;;;;;4997474;28;20084;-80
2022/07/17 10:36:42;;;;;;;3.15;1.00;;;38.70;19.60;;;;;;4996832;28;20146;-80
2022/07/17 10:39:20;;;;;;;2.63;0.80;;;38.80;20.10;;;;;;4997344;28;20038;-80
2022/07/17 10:41:59;;;;;;;2.17;0.75;;;38.10;19.30;;;;;;4997105;28;20093;-80
2022/07/17 10:44:26;;;;;;;1.58;0.85;;;37.40;20.30;;;;;;4994973;28;20062;-80
2022/07/17 10:46:53;;;;;;;1.67;0.90;;;36.80;20.90;;;;;;4997041;28;20465;-81
2022/07/17 10:49:19;;;;;;;1.60;0.80;;;35.80;22.00;;;;;;4996569;28;20453;-81
2022/07/17 10:51:46;;;;;;;3.08;0.90;;;35.30;22.40;;;;;;4997018;28;20031;-80
2022/07/17 10:54:12;;;;;;;2.88;1.35;;;34.60;23.90;;;;;;4997097;28;20378;-80
2022/07/17 10:56:44;;;;;;;3.20;1.00;;;34.70;23.90;;;;;;4995327;28;20520;-80
2022/07/17 10:59:10;;;;;;;1.92;0.85;;;34.70;24.40;;;;;;4996478;28;20485;-80
2022/07/17 11:01:36;;;;;;;2.47;1.10;;;34.30;24.10;;;;;;4996293;28;20120;-81
2022/07/17 11:04:02;;;;;;;2.30;1.00;;;34.30;24.20;;;;;;4996801;28;20030;-81
2022/07/17 11:06:30;;;;;;;4.15;1.38;;;33.90;24.70;;;;;;5010683;28;20035;-80
2022/07/17 11:09:03;;;;;;;1.48;0.80;;;33.70;25.60;;;;;;4997208;28;20461;-81
2022/07/17 11:11:35;;;;;;;2.47;1.15;;;33.70;25.10;;;;;;5012034;28;20404;-81
2022/07/17 11:14:15;;;;;;;3.97;1.05;;;33.70;25.30;;;;;;4994893;28;20084;-80
2022/07/17 11:16:58;;;;;;;2.47;1.00;;;33.80;25.50;;;;;;4996442;28;20121;-80
2022/07/17 11:19:39;;;;;;;2.83;1.00;;;34.20;25.50;;;;;;4994662;28;20034;-80
2022/07/17 11:22:10;;;;;;;2.83;1.10;;;34.20;25.40;;;;;;5011722;28;20034;-81
2022/07/17 11:24:43;;;;;;;2.53;1.00;;;34.10;24.50;;;;;;4995948;28;20067;-81
2022/07/17 11:27:23;;;;;;;2.25;1.00;;;33.80;25.10;;;;;;4996365;28;20054;-80
2022/07/17 11:29:51;;;;;;;2.58;1.00;;;34.10;25.40;;;;;;4996228;28;20109;-80
2022/07/17 11:32:17;;;;;;;1.83;1.33;;;34.10;25.00;;;;;;4994693;28;20031;-80
2022/07/17 11:34:43;;;;;;;3.25;0.80;;;34.30;25.20;;;;;;4995782;28;20029;-80
2022/07/17 11:37:09;;;;;;;1.70;0.93;;;34.00;25.10;;;;;;4995906;28;20467;-80
2022/07/17 11:39:46;;;;;;;3.25;0.95;;;34.00;24.30;;;;;;5011140;28;20058;-81
2022/07/17 11:42:14;;;;;;;2.05;1.10;;;34.00;24.90;;;;;;4995445;28;20576;-80
2022/07/17 11:44:40;;;;;;;1.63;0.80;;;34.20;26.30;;;;;;4996186;28;20027;-80
2022/07/17 11:47:06;;;;;;;1.10;0.70;;;33.90;25.40;;;;;;5004605;28;20080;-80
2022/07/17 11:49:40;;;;;;;2.88;0.85;;;33.60;24.30;;;;;;4995991;28;20053;-81
2022/07/17 11:52:11;;;;;;;1.85;0.98;;;33.60;24.40;;;;;;5007317;28;20685;-81
2022/07/17 11:54:47;;;;;;;3.30;0.88;;;33.60;25.50;;;;;;4976639;28;20023;-82
2022/07/17 11:57:14;;;;;;;2.22;0.88;;;33.70;25.00;;;;;;5007358;28;20034;-80
2022/07/17 11:59:39;;;;;;;1.77;0.70;;;33.60;24.30;;;;;;4982589;28;20021;-81
2022/07/17 12:02:13;;;;;;;2.47;1.02;;;33.30;24.80;;;;;;5011115;28;20062;-80
2022/07/17 12:04:53;;;;;;;5.05;1.10;;;33.30;25.00;;;;;;4995713;28;20567;-81
2022/07/17 12:07:20;;;;;;;1.42;0.60;;;33.50;26.10;;;;;;4995824;28;20505;-80
2022/07/17 12:09:47;;;;;;;1.73;0.73;;;33.70;25.70;;;;;;4995745;28;20374;-80
2022/07/17 12:12:23;;;;;;;2.13;0.80;;;34.00;26.50;;;;;;4995210;28;20074;-80
2022/07/17 12:14:52;;;;;;;1.30;0.98;;;34.20;26.10;;;;;;5010594;28;20952;-80
2022/07/17 12:17:18;;;;;;;2.92;1.25;;;34.00;25.70;;;;;;4994999;28;20022;-80
2022/07/17 12:19:44;;;;;;;2.88;1.23;;;34.20;25.20;;;;;;4995818;28;20026;-80
2022/07/17 12:22:10;;;;;;;1.58;0.70;;;34.20;25.30;;;;;;4995151;28;20486;-80
2022/07/17 12:24:44;;;;;;;3.58;0.98;;;34.30;25.30;;;;;;4995584;28;20105;-80
2022/07/17 12:27:13;;;;;;;2.17;0.82;;;34.30;24.60;;;;;;5010633;28;20477;-80
2022/07/17 12:29:40;;;;;;;1.30;0.80;;;34.10;24.70;;;;;;4995914;28;20386;-80
2022/07/17 12:32:24;;;;;;;5.55;0.70;;;34.00;23.90;;;;;;4995135;28;20029;-80
2022/07/17 12:34:50;;;;;;;1.70;0.70;;;34.00;24.20;;;;;;4995091;28;20034;-80
2022/07/17 12:37:20;;;;;;;2.13;0.82;;;34.10;24.30;;;;;;4995619;28;20034;-80
2022/07/17 12:39:47;;;;;;;1.45;0.60;;;34.00;25.10;;;;;;4995090;28;20027;-80
2022/07/17 12:42:14;;;;;;;3.15;1.00;;;34.00;23.90;;;;;;4995921;28;20027;-81
2022/07/17 12:44:41;;;;;;;3.92;0.88;;;33.80;24.30;;;;;;4998923;28;20036;-80
2022/07/17 12:47:07;;;;;;;2.42;1.00;;;33.70;24.40;;;;;;4999307;28;20025;-80